sensor_id;sensor_type;location;lat;lon;timestamp;P1;durP1;ratioP1;P2;durP2;ratioP2
10432;SDS011;5263;48.680;9.004;2024-03-22T00:00:44;9.67;;;8.60;;
10432;SDS011;5263;48.680;9.004;2024-03-22T00:03:10;11.30;;;9.50;;
10432;SDS011;5263;48.680;9.004;2024-03-22T00:05:35;14.60;;;10.50;;
10432;SDS011;5263;48.680;9.004;2024-03-22T00:08:01;13.27;;;10.93;;
10432;SDS011;5263;48.680;9.004;2024-03-22T00:10:26;17.53;;;11.67;;
10432;SDS011;5263;48.680;9.004;2024-03-22T00:12:52;17.13;;;12.23;;
10432;SDS011;5263;48.680;9.004;2024-03-22T00:15:17;17.43;;;10.33;;
10432;SDS011;5263;48.680;9.004;2024-03-22T00:17:44;16.77;;;11.50;;
10432;SDS011;5263;48.680;9.004;2024-03-22T00:20:10;14.93;;;10.43;;
10432;SDS011;5263;48.680;9.004;2024-03-22T00:22:36;11.23;;;10.03;;
10432;SDS011;5263;48.680;9.004;2024-03-22T00:25:01;14.93;;;11.20;;
10432;SDS011;5263;48.680;9.004;2024-03-22T00:27:27;14.30;;;11.17;;
10432;SDS011;5263;48.680;9.004;2024-03-22T00:29:53;14.43;;;11.87;;
10432;SDS011;5263;48.680;9.004;2024-03-22T00:32:18;15.53;;;11.60;;
10432;SDS011;5263;48.680;9.004;2024-03-22T00:34:44;14.90;;;11.53;;
10432;SDS011;5263;48.680;9.004;2024-03-22T00:37:10;14.50;;;12.30;;
10432;SDS011;5263;48.680;9.004;2024-03-22T00:39:35;14.03;;;11.70;;
10432;SDS011;5263;48.680;9.004;2024-03-22T00:42:01;12.40;;;10.77;;
10432;SDS011;5263;48.680;9.004;2024-03-22T00:44:27;13.03;;;10.90;;
10432;SDS011;5263;48.680;9.004;2024-03-22T00:46:52;15.60;;;12.00;;
10432;SDS011;5263;48.680;9.004;2024-03-22T00:49:18;14.57;;;10.93;;
10432;SDS011;5263;48.680;9.004;2024-03-22T00:51:43;13.27;;;11.87;;
10432;SDS011;5263;48.680;9.004;2024-03-22T00:54:09;21.67;;;10.77;;
10432;SDS011;5263;48.680;9.004;2024-03-22T00:56:35;16.20;;;10.10;;
10432;SDS011;5263;48.680;9.004;2024-03-22T00:59:01;11.40;;;9.43;;
10432;SDS011;5263;48.680;9.004;2024-03-22T01:01:26;14.17;;;11.20;;
10432;SDS011;5263;48.680;9.004;2024-03-22T01:03:52;13.63;;;10.00;;
10432;SDS011;5263;48.680;9.004;2024-03-22T01:06:18;11.30;;;9.60;;
10432;SDS011;5263;48.680;9.004;2024-03-22T01:08:48;11.87;;;9.30;;
10432;SDS011;5263;48.680;9.004;2024-03-22T01:11:14;12.10;;;8.23;;
10432;SDS011;5263;48.680;9.004;2024-03-22T01:13:40;11.67;;;9.97;;
10432;SDS011;5263;48.680;9.004;2024-03-22T01:16:05;9.00;;;7.37;;
10432;SDS011;5263;48.680;9.004;2024-03-22T01:18:34;10.00;;;9.00;;
10432;SDS011;5263;48.680;9.004;2024-03-22T01:21:00;12.10;;;8.80;;
10432;SDS011;5263;48.680;9.004;2024-03-22T01:23:26;13.23;;;9.73;;
10432;SDS011;5263;48.680;9.004;2024-03-22T01:25:51;12.67;;;8.50;;
10432;SDS011;5263;48.680;9.004;2024-03-22T01:28:17;9.73;;;8.57;;
10432;SDS011;5263;48.680;9.004;2024-03-22T01:30:42;9.77;;;8.07;;
10432;SDS011;5263;48.680;9.004;2024-03-22T01:33:09;10.33;;;9.23;;
10432;SDS011;5263;48.680;9.004;2024-03-22T01:35:34;10.10;;;8.70;;
10432;SDS011;5263;48.680;9.004;2024-03-22T01:38:00;9.47;;;8.20;;
10432;SDS011;5263;48.680;9.004;2024-03-22T01:40:25;10.40;;;9.43;;
10432;SDS011;5263;48.680;9.004;2024-03-22T01:42:57;11.43;;;9.43;;
10432;SDS011;5263;48.680;9.004;2024-03-22T01:45:24;11.97;;;9.50;;
10432;SDS011;5263;48.680;9.004;2024-03-22T01:47:50;9.40;;;7.97;;
10432;SDS011;5263;48.680;9.004;2024-03-22T01:50:23;13.77;;;9.53;;
10432;SDS011;5263;48.680;9.004;2024-03-22T01:52:49;10.43;;;8.87;;
10432;SDS011;5263;48.680;9.004;2024-03-22T01:55:15;10.77;;;8.70;;
10432;SDS011;5263;48.680;9.004;2024-03-22T01:57:41;10.77;;;9.43;;
10432;SDS011;5263;48.680;9.004;2024-03-22T02:00:08;10.77;;;9.67;;
10432;SDS011;5263;48.680;9.004;2024-03-22T02:02:34;14.23;;;10.57;;
10432;SDS011;5263;48.680;9.004;2024-03-22T02:05:11;11.53;;;9.43;;
10432;SDS011;5263;48.680;9.004;2024-03-22T02:07:40;13.27;;;9.23;;
10432;SDS011;5263;48.680;9.004;2024-03-22T02:10:07;12.73;;;9.97;;
10432;SDS011;5263;48.680;9.004;2024-03-22T02:12:35;11.90;;;9.30;;
10432;SDS011;5263;48.680;9.004;2024-03-22T02:15:02;10.80;;;9.10;;
10432;SDS011;5263;48.680;9.004;2024-03-22T02:17:28;9.53;;;8.53;;
10432;SDS011;5263;48.680;9.004;2024-03-22T02:19:53;11.50;;;8.00;;
10432;SDS011;5263;48.680;9.004;2024-03-22T02:22:19;9.87;;;8.13;;
10432;SDS011;5263;48.680;9.004;2024-03-22T02:24:44;11.23;;;7.93;;
10432;SDS011;5263;48.680;9.004;2024-03-22T02:27:10;12.57;;;8.67;;
10432;SDS011;5263;48.680;9.004;2024-03-22T02:29:35;8.90;;;8.00;;
10432;SDS011;5263;48.680;9.004;2024-03-22T02:32:01;10.97;;;8.57;;
10432;SDS011;5263;48.680;9.004;2024-03-22T02:34:28;9.83;;;8.43;;
10432;SDS011;5263;48.680;9.004;2024-03-22T02:36:54;8.60;;;7.70;;
10432;SDS011;5263;48.680;9.004;2024-03-22T02:39:19;11.37;;;9.53;;
10432;SDS011;5263;48.680;9.004;2024-03-22T02:41:45;9.93;;;7.93;;
10432;SDS011;5263;48.680;9.004;2024-03-22T02:44:10;13.03;;;9.83;;
10432;SDS011;5263;48.680;9.004;2024-03-22T02:46:36;12.27;;;9.37;;
10432;SDS011;5263;48.680;9.004;2024-03-22T02:49:01;10.23;;;8.80;;
10432;SDS011;5263;48.680;9.004;2024-03-22T02:51:27;9.90;;;8.90;;
10432;SDS011;5263;48.680;9.004;2024-03-22T02:53:52;9.67;;;8.07;;
10432;SDS011;5263;48.680;9.004;2024-03-22T02:56:18;8.87;;;7.97;;
10432;SDS011;5263;48.680;9.004;2024-03-22T02:58:43;9.43;;;8.53;;
10432;SDS011;5263;48.680;9.004;2024-03-22T03:01:09;11.33;;;8.80;;
10432;SDS011;5263;48.680;9.004;2024-03-22T03:03:34;9.30;;;8.40;;
10432;SDS011;5263;48.680;9.004;2024-03-22T03:06:00;14.30;;;9.27;;
10432;SDS011;5263;48.680;9.004;2024-03-22T03:08:25;9.50;;;8.50;;
10432;SDS011;5263;48.680;9.004;2024-03-22T03:10:51;11.43;;;10.03;;
10432;SDS011;5263;48.680;9.004;2024-03-22T03:13:16;12.27;;;9.97;;
10432;SDS011;5263;48.680;9.004;2024-03-22T03:15:42;11.70;;;9.60;;
10432;SDS011;5263;48.680;9.004;2024-03-22T03:18:07;13.03;;;10.77;;
10432;SDS011;5263;48.680;9.004;2024-03-22T03:20:33;12.90;;;9.53;;
10432;SDS011;5263;48.680;9.004;2024-03-22T03:22:58;14.63;;;10.87;;
10432;SDS011;5263;48.680;9.004;2024-03-22T03:25:25;11.73;;;10.53;;
10432;SDS011;5263;48.680;9.004;2024-03-22T03:27:51;13.53;;;10.53;;
10432;SDS011;5263;48.680;9.004;2024-03-22T03:30:17;10.70;;;9.60;;
10432;SDS011;5263;48.680;9.004;2024-03-22T03:32:42;15.60;;;10.33;;
10432;SDS011;5263;48.680;9.004;2024-03-22T03:35:08;12.57;;;9.30;;
10432;SDS011;5263;48.680;9.004;2024-03-22T03:37:33;11.50;;;9.77;;
10432;SDS011;5263;48.680;9.004;2024-03-22T03:39:59;13.07;;;9.60;;
10432;SDS011;5263;48.680;9.004;2024-03-22T03:42:24;16.47;;;9.97;;
10432;SDS011;5263;48.680;9.004;2024-03-22T03:44:50;14.47;;;11.23;;
10432;SDS011;5263;48.680;9.004;2024-03-22T03:47:16;11.93;;;9.07;;
10432;SDS011;5263;48.680;9.004;2024-03-22T03:49:41;11.73;;;9.47;;
10432;SDS011;5263;48.680;9.004;2024-03-22T03:52:07;13.80;;;10.70;;
10432;SDS011;5263;48.680;9.004;2024-03-22T03:54:32;13.87;;;10.10;;
10432;SDS011;5263;48.680;9.004;2024-03-22T03:56:58;15.30;;;10.03;;
10432;SDS011;5263;48.680;9.004;2024-03-22T03:59:24;11.30;;;9.23;;
10432;SDS011;5263;48.680;9.004;2024-03-22T04:01:49;13.87;;;11.07;;
10432;SDS011;5263;48.680;9.004;2024-03-22T04:04:15;11.20;;;9.47;;
10432;SDS011;5263;48.680;9.004;2024-03-22T04:06:40;16.83;;;10.10;;
10432;SDS011;5263;48.680;9.004;2024-03-22T04:09:06;13.17;;;10.20;;
10432;SDS011;5263;48.680;9.004;2024-03-22T04:11:31;13.03;;;10.30;;
10432;SDS011;5263;48.680;9.004;2024-03-22T04:13:57;14.00;;;10.00;;
10432;SDS011;5263;48.680;9.004;2024-03-22T04:16:22;15.60;;;10.30;;
10432;SDS011;5263;48.680;9.004;2024-03-22T04:18:48;10.93;;;9.57;;
10432;SDS011;5263;48.680;9.004;2024-03-22T04:21:14;12.57;;;10.30;;
10432;SDS011;5263;48.680;9.004;2024-03-22T04:23:39;11.83;;;10.27;;
10432;SDS011;5263;48.680;9.004;2024-03-22T04:26:05;17.93;;;10.17;;
10432;SDS011;5263;48.680;9.004;2024-03-22T04:28:30;13.47;;;9.93;;
10432;SDS011;5263;48.680;9.004;2024-03-22T04:31:00;10.47;;;9.37;;
10432;SDS011;5263;48.680;9.004;2024-03-22T04:33:26;13.50;;;9.13;;
10432;SDS011;5263;48.680;9.004;2024-03-22T04:35:55;12.87;;;11.00;;
10432;SDS011;5263;48.680;9.004;2024-03-22T04:38:22;13.13;;;10.03;;
10432;SDS011;5263;48.680;9.004;2024-03-22T04:40:48;15.60;;;10.17;;
10432;SDS011;5263;48.680;9.004;2024-03-22T04:43:14;18.87;;;10.20;;
10432;SDS011;5263;48.680;9.004;2024-03-22T04:45:44;14.17;;;10.80;;
10432;SDS011;5263;48.680;9.004;2024-03-22T04:48:12;13.37;;;10.50;;
10432;SDS011;5263;48.680;9.004;2024-03-22T04:50:38;15.57;;;10.53;;
10432;SDS011;5263;48.680;9.004;2024-03-22T04:53:04;12.10;;;9.77;;
10432;SDS011;5263;48.680;9.004;2024-03-22T04:55:30;13.30;;;10.23;;
10432;SDS011;5263;48.680;9.004;2024-03-22T04:57:57;10.67;;;9.20;;
10432;SDS011;5263;48.680;9.004;2024-03-22T05:00:23;11.77;;;9.97;;
10432;SDS011;5263;48.680;9.004;2024-03-22T05:02:50;15.00;;;11.23;;
10432;SDS011;5263;48.680;9.004;2024-03-22T05:05:16;26.80;;;24.10;;
10432;SDS011;5263;48.680;9.004;2024-03-22T05:07:41;22.10;;;19.53;;
10432;SDS011;5263;48.680;9.004;2024-03-22T05:10:07;13.73;;;12.33;;
10432;SDS011;5263;48.680;9.004;2024-03-22T05:12:34;12.60;;;10.77;;
10432;SDS011;5263;48.680;9.004;2024-03-22T05:15:00;12.47;;;9.50;;
10432;SDS011;5263;48.680;9.004;2024-03-22T05:17:25;10.27;;;8.23;;
10432;SDS011;5263;48.680;9.004;2024-03-22T05:19:51;10.47;;;8.47;;
10432;SDS011;5263;48.680;9.004;2024-03-22T05:22:17;12.03;;;9.23;;
10432;SDS011;5263;48.680;9.004;2024-03-22T05:24:45;9.33;;;8.20;;
10432;SDS011;5263;48.680;9.004;2024-03-22T05:27:10;9.87;;;8.63;;
10432;SDS011;5263;48.680;9.004;2024-03-22T05:29:37;11.37;;;7.43;;
10432;SDS011;5263;48.680;9.004;2024-03-22T05:32:03;10.00;;;8.40;;
10432;SDS011;5263;48.680;9.004;2024-03-22T05:34:29;8.63;;;7.77;;
10432;SDS011;5263;48.680;9.004;2024-03-22T05:36:54;13.97;;;9.27;;
10432;SDS011;5263;48.680;9.004;2024-03-22T05:39:20;8.83;;;7.97;;
10432;SDS011;5263;48.680;9.004;2024-03-22T05:41:46;14.27;;;9.33;;
10432;SDS011;5263;48.680;9.004;2024-03-22T05:44:11;15.17;;;9.47;;
10432;SDS011;5263;48.680;9.004;2024-03-22T05:46:37;14.47;;;9.50;;
10432;SDS011;5263;48.680;9.004;2024-03-22T05:49:02;9.63;;;8.63;;
10432;SDS011;5263;48.680;9.004;2024-03-22T05:51:28;9.53;;;8.47;;
10432;SDS011;5263;48.680;9.004;2024-03-22T05:53:55;9.50;;;8.50;;
10432;SDS011;5263;48.680;9.004;2024-03-22T05:56:21;10.83;;;8.67;;
10432;SDS011;5263;48.680;9.004;2024-03-22T05:58:47;11.43;;;8.90;;
10432;SDS011;5263;48.680;9.004;2024-03-22T06:01:12;11.20;;;8.20;;
10432;SDS011;5263;48.680;9.004;2024-03-22T06:03:38;10.80;;;8.97;;
10432;SDS011;5263;48.680;9.004;2024-03-22T06:06:04;12.73;;;8.67;;
10432;SDS011;5263;48.680;9.004;2024-03-22T06:08:30;13.70;;;9.97;;
10432;SDS011;5263;48.680;9.004;2024-03-22T06:11:00;10.40;;;8.23;;
10432;SDS011;5263;48.680;9.004;2024-03-22T06:13:26;11.07;;;9.17;;
10432;SDS011;5263;48.680;9.004;2024-03-22T06:15:51;11.30;;;9.80;;
10432;SDS011;5263;48.680;9.004;2024-03-22T06:18:17;11.63;;;9.30;;
10432;SDS011;5263;48.680;9.004;2024-03-22T06:20:42;10.87;;;8.60;;
10432;SDS011;5263;48.680;9.004;2024-03-22T06:23:08;11.17;;;8.70;;
10432;SDS011;5263;48.680;9.004;2024-03-22T06:25:34;12.43;;;9.87;;
10432;SDS011;5263;48.680;9.004;2024-03-22T06:28:01;12.67;;;8.87;;
10432;SDS011;5263;48.680;9.004;2024-03-22T06:30:26;10.67;;;8.37;;
10432;SDS011;5263;48.680;9.004;2024-03-22T06:32:54;11.20;;;8.83;;
10432;SDS011;5263;48.680;9.004;2024-03-22T06:35:21;14.80;;;9.33;;
10432;SDS011;5263;48.680;9.004;2024-03-22T06:37:47;12.77;;;8.77;;
10432;SDS011;5263;48.680;9.004;2024-03-22T06:40:13;12.53;;;9.13;;
10432;SDS011;5263;48.680;9.004;2024-03-22T06:42:39;17.27;;;10.77;;
10432;SDS011;5263;48.680;9.004;2024-03-22T06:45:05;15.87;;;9.73;;
10432;SDS011;5263;48.680;9.004;2024-03-22T06:47:31;14.37;;;10.30;;
10432;SDS011;5263;48.680;9.004;2024-03-22T06:49:57;16.17;;;10.37;;
10432;SDS011;5263;48.680;9.004;2024-03-22T06:52:22;10.80;;;9.43;;
10432;SDS011;5263;48.680;9.004;2024-03-22T06:54:48;11.33;;;8.90;;
10432;SDS011;5263;48.680;9.004;2024-03-22T06:57:14;12.63;;;9.73;;
10432;SDS011;5263;48.680;9.004;2024-03-22T06:59:39;12.80;;;8.60;;
10432;SDS011;5263;48.680;9.004;2024-03-22T07:02:05;10.97;;;8.53;;
10432;SDS011;5263;48.680;9.004;2024-03-22T07:04:30;10.50;;;7.97;;
10432;SDS011;5263;48.680;9.004;2024-03-22T07:06:56;9.20;;;8.30;;
10432;SDS011;5263;48.680;9.004;2024-03-22T07:09:21;11.27;;;8.10;;
10432;SDS011;5263;48.680;9.004;2024-03-22T07:11:47;14.07;;;8.43;;
10432;SDS011;5263;48.680;9.004;2024-03-22T07:14:13;11.60;;;9.07;;
10432;SDS011;5263;48.680;9.004;2024-03-22T07:16:38;11.43;;;7.73;;
10432;SDS011;5263;48.680;9.004;2024-03-22T07:19:04;11.23;;;8.93;;
10432;SDS011;5263;48.680;9.004;2024-03-22T07:21:30;13.10;;;8.47;;
10432;SDS011;5263;48.680;9.004;2024-03-22T07:23:56;12.33;;;9.13;;
10432;SDS011;5263;48.680;9.004;2024-03-22T07:26:22;13.17;;;8.30;;
10432;SDS011;5263;48.680;9.004;2024-03-22T07:28:47;16.47;;;9.13;;
10432;SDS011;5263;48.680;9.004;2024-03-22T07:31:13;16.50;;;8.73;;
10432;SDS011;5263;48.680;9.004;2024-03-22T07:33:39;13.63;;;9.30;;
10432;SDS011;5263;48.680;9.004;2024-03-22T07:36:05;10.77;;;8.27;;
10432;SDS011;5263;48.680;9.004;2024-03-22T07:38:32;11.70;;;8.57;;
10432;SDS011;5263;48.680;9.004;2024-03-22T07:40:57;9.23;;;8.33;;
10432;SDS011;5263;48.680;9.004;2024-03-22T07:43:23;13.10;;;7.50;;
10432;SDS011;5263;48.680;9.004;2024-03-22T07:45:48;9.20;;;7.80;;
10432;SDS011;5263;48.680;9.004;2024-03-22T07:48:14;7.50;;;6.73;;
10432;SDS011;5263;48.680;9.004;2024-03-22T07:50:40;10.90;;;7.50;;
10432;SDS011;5263;48.680;9.004;2024-03-22T07:53:06;8.13;;;6.20;;
10432;SDS011;5263;48.680;9.004;2024-03-22T07:55:31;8.30;;;6.83;;
10432;SDS011;5263;48.680;9.004;2024-03-22T07:57:57;9.10;;;7.13;;
10432;SDS011;5263;48.680;9.004;2024-03-22T08:00:23;9.10;;;6.27;;
10432;SDS011;5263;48.680;9.004;2024-03-22T08:02:50;7.33;;;6.47;;
10432;SDS011;5263;48.680;9.004;2024-03-22T08:05:16;9.27;;;6.27;;
10432;SDS011;5263;48.680;9.004;2024-03-22T08:07:42;8.63;;;5.93;;
10432;SDS011;5263;48.680;9.004;2024-03-22T08:10:08;6.90;;;6.20;;
10432;SDS011;5263;48.680;9.004;2024-03-22T08:12:34;6.80;;;6.10;;
10432;SDS011;5263;48.680;9.004;2024-03-22T08:15:00;7.13;;;5.93;;
10432;SDS011;5263;48.680;9.004;2024-03-22T08:17:26;11.37;;;6.33;;
10432;SDS011;5263;48.680;9.004;2024-03-22T08:19:51;7.73;;;6.23;;
10432;SDS011;5263;48.680;9.004;2024-03-22T08:22:18;7.07;;;5.67;;
10432;SDS011;5263;48.680;9.004;2024-03-22T08:24:43;10.40;;;6.37;;
10432;SDS011;5263;48.680;9.004;2024-03-22T08:27:09;7.23;;;6.10;;
10432;SDS011;5263;48.680;9.004;2024-03-22T08:29:34;6.90;;;5.83;;
10432;SDS011;5263;48.680;9.004;2024-03-22T08:32:00;13.27;;;6.30;;
10432;SDS011;5263;48.680;9.004;2024-03-22T08:34:29;8.13;;;5.80;;
10432;SDS011;5263;48.680;9.004;2024-03-22T08:36:55;9.50;;;5.93;;
10432;SDS011;5263;48.680;9.004;2024-03-22T08:39:20;6.07;;;5.43;;
10432;SDS011;5263;48.680;9.004;2024-03-22T08:41:46;7.43;;;4.77;;
10432;SDS011;5263;48.680;9.004;2024-03-22T08:44:12;11.00;;;5.70;;
10432;SDS011;5263;48.680;9.004;2024-03-22T08:46:37;8.23;;;5.10;;
10432;SDS011;5263;48.680;9.004;2024-03-22T08:49:03;7.57;;;5.13;;
10432;SDS011;5263;48.680;9.004;2024-03-22T08:51:29;6.73;;;5.60;;
10432;SDS011;5263;48.680;9.004;2024-03-22T08:53:55;10.20;;;5.57;;
10432;SDS011;5263;48.680;9.004;2024-03-22T08:56:21;10.57;;;5.50;;
10432;SDS011;5263;48.680;9.004;2024-03-22T08:58:46;6.30;;;5.47;;
10432;SDS011;5263;48.680;9.004;2024-03-22T09:01:12;9.70;;;5.20;;
10432;SDS011;5263;48.680;9.004;2024-03-22T09:03:37;8.13;;;4.93;;
10432;SDS011;5263;48.680;9.004;2024-03-22T09:06:04;6.87;;;5.23;;
10432;SDS011;5263;48.680;9.004;2024-03-22T09:08:29;5.73;;;4.93;;
10432;SDS011;5263;48.680;9.004;2024-03-22T09:10:56;8.57;;;5.17;;
10432;SDS011;5263;48.680;9.004;2024-03-22T09:13:22;5.53;;;4.57;;
10432;SDS011;5263;48.680;9.004;2024-03-22T09:15:47;4.87;;;4.37;;
10432;SDS011;5263;48.680;9.004;2024-03-22T09:18:13;6.07;;;5.00;;
10432;SDS011;5263;48.680;9.004;2024-03-22T09:20:39;6.50;;;4.73;;
10432;SDS011;5263;48.680;9.004;2024-03-22T09:23:04;6.47;;;4.60;;
10432;SDS011;5263;48.680;9.004;2024-03-22T09:25:30;4.20;;;3.90;;
10432;SDS011;5263;48.680;9.004;2024-03-22T09:27:55;4.03;;;3.50;;
10432;SDS011;5263;48.680;9.004;2024-03-22T09:30:21;7.77;;;4.40;;
10432;SDS011;5263;48.680;9.004;2024-03-22T09:32:47;5.53;;;4.27;;
10432;SDS011;5263;48.680;9.004;2024-03-22T09:35:12;4.87;;;4.33;;
10432;SDS011;5263;48.680;9.004;2024-03-22T09:37:42;4.27;;;3.90;;
10432;SDS011;5263;48.680;9.004;2024-03-22T09:40:08;5.70;;;4.90;;
10432;SDS011;5263;48.680;9.004;2024-03-22T09:42:36;5.27;;;3.90;;
10432;SDS011;5263;48.680;9.004;2024-03-22T09:45:08;5.47;;;4.87;;
10432;SDS011;5263;48.680;9.004;2024-03-22T09:47:35;4.60;;;4.20;;
10432;SDS011;5263;48.680;9.004;2024-03-22T09:50:02;5.73;;;3.90;;
10432;SDS011;5263;48.680;9.004;2024-03-22T09:52:33;4.97;;;4.20;;
10432;SDS011;5263;48.680;9.004;2024-03-22T09:54:59;6.57;;;4.70;;
10432;SDS011;5263;48.680;9.004;2024-03-22T09:57:24;5.97;;;4.67;;
10432;SDS011;5263;48.680;9.004;2024-03-22T09:59:51;5.63;;;4.00;;
10432;SDS011;5263;48.680;9.004;2024-03-22T10:02:17;6.83;;;4.27;;
10432;SDS011;5263;48.680;9.004;2024-03-22T10:04:43;6.60;;;4.30;;
10432;SDS011;5263;48.680;9.004;2024-03-22T10:07:08;5.47;;;4.50;;
10432;SDS011;5263;48.680;9.004;2024-03-22T10:09:35;4.43;;;4.03;;
10432;SDS011;5263;48.680;9.004;2024-03-22T10:12:01;5.10;;;4.63;;
10432;SDS011;5263;48.680;9.004;2024-03-22T10:14:28;4.00;;;3.67;;
10432;SDS011;5263;48.680;9.004;2024-03-22T10:16:54;4.73;;;4.33;;
10432;SDS011;5263;48.680;9.004;2024-03-22T10:19:20;5.90;;;4.20;;
10432;SDS011;5263;48.680;9.004;2024-03-22T10:24:45;4.77;;;4.33;;
10432;SDS011;5263;48.680;9.004;2024-03-22T10:27:10;4.97;;;4.37;;
10432;SDS011;5263;48.680;9.004;2024-03-22T10:29:37;8.70;;;4.53;;
10432;SDS011;5263;48.680;9.004;2024-03-22T10:32:02;7.67;;;3.87;;
10432;SDS011;5263;48.680;9.004;2024-03-22T10:34:28;5.10;;;4.43;;
10432;SDS011;5263;48.680;9.004;2024-03-22T10:36:58;5.17;;;3.73;;
10432;SDS011;5263;48.680;9.004;2024-03-22T10:39:26;3.30;;;3.00;;
10432;SDS011;5263;48.680;9.004;2024-03-22T10:41:52;5.23;;;4.30;;
10432;SDS011;5263;48.680;9.004;2024-03-22T10:44:18;7.13;;;4.13;;
10432;SDS011;5263;48.680;9.004;2024-03-22T10:46:48;4.70;;;3.40;;
10432;SDS011;5263;48.680;9.004;2024-03-22T10:49:18;5.83;;;3.93;;
10432;SDS011;5263;48.680;9.004;2024-03-22T10:51:46;6.43;;;4.07;;
10432;SDS011;5263;48.680;9.004;2024-03-22T10:54:33;5.23;;;3.80;;
10432;SDS011;5263;48.680;9.004;2024-03-22T10:57:01;4.53;;;3.30;;
10432;SDS011;5263;48.680;9.004;2024-03-22T10:59:27;4.40;;;2.90;;
10432;SDS011;5263;48.680;9.004;2024-03-22T11:02:02;4.33;;;3.93;;
10432;SDS011;5263;48.680;9.004;2024-03-22T11:04:32;3.60;;;2.83;;
10432;SDS011;5263;48.680;9.004;2024-03-22T11:06:58;6.90;;;3.23;;
10432;SDS011;5263;48.680;9.004;2024-03-22T11:09:24;7.33;;;3.50;;
10432;SDS011;5263;48.680;9.004;2024-03-22T11:11:55;5.87;;;3.67;;
10432;SDS011;5263;48.680;9.004;2024-03-22T11:14:22;3.33;;;3.00;;
10432;SDS011;5263;48.680;9.004;2024-03-22T11:16:49;4.33;;;3.27;;
10432;SDS011;5263;48.680;9.004;2024-03-22T11:19:15;5.10;;;3.83;;
10432;SDS011;5263;48.680;9.004;2024-03-22T11:21:41;3.23;;;2.90;;
10432;SDS011;5263;48.680;9.004;2024-03-22T11:24:07;4.50;;;2.70;;
10432;SDS011;5263;48.680;9.004;2024-03-22T11:26:33;2.77;;;2.57;;
10432;SDS011;5263;48.680;9.004;2024-03-22T11:28:59;2.20;;;2.00;;
10432;SDS011;5263;48.680;9.004;2024-03-22T11:31:25;4.53;;;2.77;;
10432;SDS011;5263;48.680;9.004;2024-03-22T11:33:54;7.47;;;2.63;;
10432;SDS011;5263;48.680;9.004;2024-03-22T11:36:21;4.23;;;2.17;;
10432;SDS011;5263;48.680;9.004;2024-03-22T11:38:47;2.60;;;1.90;;
10432;SDS011;5263;48.680;9.004;2024-03-22T11:41:16;5.93;;;2.40;;
10432;SDS011;5263;48.680;9.004;2024-03-22T11:43:44;3.40;;;2.97;;
10432;SDS011;5263;48.680;9.004;2024-03-22T11:46:12;2.27;;;2.00;;
10432;SDS011;5263;48.680;9.004;2024-03-22T11:48:40;2.27;;;1.60;;
10432;SDS011;5263;48.680;9.004;2024-03-22T11:51:07;2.30;;;1.93;;
10432;SDS011;5263;48.680;9.004;2024-03-22T11:53:34;3.83;;;2.50;;
10432;SDS011;5263;48.680;9.004;2024-03-22T11:56:00;3.13;;;1.50;;
10432;SDS011;5263;48.680;9.004;2024-03-22T11:58:28;2.50;;;2.30;;
10432;SDS011;5263;48.680;9.004;2024-03-22T12:00:55;2.53;;;2.33;;
10432;SDS011;5263;48.680;9.004;2024-03-22T12:03:22;2.00;;;1.57;;
10432;SDS011;5263;48.680;9.004;2024-03-22T12:05:48;3.37;;;2.80;;
10432;SDS011;5263;48.680;9.004;2024-03-22T12:08:16;2.93;;;2.33;;
10432;SDS011;5263;48.680;9.004;2024-03-22T12:10:42;6.17;;;2.27;;
10432;SDS011;5263;48.680;9.004;2024-03-22T12:13:08;2.27;;;2.07;;
10432;SDS011;5263;48.680;9.004;2024-03-22T12:15:34;2.50;;;1.60;;
10432;SDS011;5263;48.680;9.004;2024-03-22T12:18:00;3.77;;;2.40;;
10432;SDS011;5263;48.680;9.004;2024-03-22T12:20:26;2.33;;;2.10;;
10432;SDS011;5263;48.680;9.004;2024-03-22T12:22:52;3.53;;;2.20;;
10432;SDS011;5263;48.680;9.004;2024-03-22T12:25:17;2.63;;;1.87;;
10432;SDS011;5263;48.680;9.004;2024-03-22T12:27:43;2.77;;;1.80;;
10432;SDS011;5263;48.680;9.004;2024-03-22T12:30:11;2.37;;;1.90;;
10432;SDS011;5263;48.680;9.004;2024-03-22T12:32:37;2.40;;;1.63;;
10432;SDS011;5263;48.680;9.004;2024-03-22T12:35:02;4.17;;;1.70;;
10432;SDS011;5263;48.680;9.004;2024-03-22T12:37:29;2.90;;;1.67;;
10432;SDS011;5263;48.680;9.004;2024-03-22T12:39:55;1.77;;;1.37;;
10432;SDS011;5263;48.680;9.004;2024-03-22T12:42:20;4.20;;;1.60;;
10432;SDS011;5263;48.680;9.004;2024-03-22T12:44:46;3.23;;;1.70;;
10432;SDS011;5263;48.680;9.004;2024-03-22T12:47:12;4.07;;;1.63;;
10432;SDS011;5263;48.680;9.004;2024-03-22T12:49:37;4.63;;;1.70;;
10432;SDS011;5263;48.680;9.004;2024-03-22T12:52:03;2.03;;;1.37;;
10432;SDS011;5263;48.680;9.004;2024-03-22T12:54:29;1.20;;;1.10;;
10432;SDS011;5263;48.680;9.004;2024-03-22T12:56:55;2.37;;;1.07;;
10432;SDS011;5263;48.680;9.004;2024-03-22T12:59:20;2.93;;;1.60;;
10432;SDS011;5263;48.680;9.004;2024-03-22T13:01:46;2.27;;;1.40;;
10432;SDS011;5263;48.680;9.004;2024-03-22T13:04:12;1.93;;;1.40;;
10432;SDS011;5263;48.680;9.004;2024-03-22T13:06:38;1.47;;;1.20;;
10432;SDS011;5263;48.680;9.004;2024-03-22T13:09:03;2.80;;;1.37;;
10432;SDS011;5263;48.680;9.004;2024-03-22T13:11:30;1.27;;;1.03;;
10432;SDS011;5263;48.680;9.004;2024-03-22T13:13:56;3.37;;;1.63;;
10432;SDS011;5263;48.680;9.004;2024-03-22T13:16:22;2.13;;;1.43;;
10432;SDS011;5263;48.680;9.004;2024-03-22T13:18:48;2.70;;;2.50;;
10432;SDS011;5263;48.680;9.004;2024-03-22T13:21:14;4.13;;;1.97;;
10432;SDS011;5263;48.680;9.004;2024-03-22T13:23:39;1.50;;;1.40;;
10432;SDS011;5263;48.680;9.004;2024-03-22T13:26:05;3.50;;;1.60;;
10432;SDS011;5263;48.680;9.004;2024-03-22T13:28:31;2.13;;;1.40;;
10432;SDS011;5263;48.680;9.004;2024-03-22T13:31:07;1.70;;;1.30;;
10432;SDS011;5263;48.680;9.004;2024-03-22T13:33:35;2.63;;;1.90;;
10432;SDS011;5263;48.680;9.004;2024-03-22T13:36:01;1.93;;;1.33;;
10432;SDS011;5263;48.680;9.004;2024-03-22T13:38:27;1.50;;;1.00;;
10432;SDS011;5263;48.680;9.004;2024-03-22T13:40:54;1.83;;;1.33;;
10432;SDS011;5263;48.680;9.004;2024-03-22T13:43:29;2.50;;;1.03;;
10432;SDS011;5263;48.680;9.004;2024-03-22T13:45:54;2.20;;;0.93;;
10432;SDS011;5263;48.680;9.004;2024-03-22T13:48:24;3.03;;;1.00;;
10432;SDS011;5263;48.680;9.004;2024-03-22T13:50:53;2.13;;;1.00;;
10432;SDS011;5263;48.680;9.004;2024-03-22T13:53:20;2.63;;;1.03;;
10432;SDS011;5263;48.680;9.004;2024-03-22T13:55:49;1.10;;;1.00;;
10432;SDS011;5263;48.680;9.004;2024-03-22T13:58:16;1.15;;;0.82;;
10432;SDS011;5263;48.680;9.004;2024-03-22T14:00:41;3.10;;;0.90;;
10432;SDS011;5263;48.680;9.004;2024-03-22T14:03:07;3.88;;;0.93;;
10432;SDS011;5263;48.680;9.004;2024-03-22T14:05:33;0.65;;;0.63;;
10432;SDS011;5263;48.680;9.004;2024-03-22T14:07:59;1.33;;;0.73;;
10432;SDS011;5263;48.680;9.004;2024-03-22T14:10:25;2.05;;;0.90;;
10432;SDS011;5263;48.680;9.004;2024-03-22T14:12:52;1.17;;;0.80;;
10432;SDS011;5263;48.680;9.004;2024-03-22T14:15:18;2.25;;;0.80;;
10432;SDS011;5263;48.680;9.004;2024-03-22T14:17:44;1.13;;;0.60;;
10432;SDS011;5263;48.680;9.004;2024-03-22T14:20:10;0.40;;;0.40;;
10432;SDS011;5263;48.680;9.004;2024-03-22T14:22:39;3.07;;;0.50;;
10432;SDS011;5263;48.680;9.004;2024-03-22T14:25:06;0.63;;;0.33;;
10432;SDS011;5263;48.680;9.004;2024-03-22T14:27:32;2.30;;;0.50;;
10432;SDS011;5263;48.680;9.004;2024-03-22T14:29:58;1.87;;;1.40;;
10432;SDS011;5263;48.680;9.004;2024-03-22T14:32:24;1.93;;;0.30;;
10432;SDS011;5263;48.680;9.004;2024-03-22T14:34:51;2.10;;;0.30;;
10432;SDS011;5263;48.680;9.004;2024-03-22T14:37:17;0.87;;;0.30;;
10432;SDS011;5263;48.680;9.004;2024-03-22T14:39:42;0.50;;;0.43;;
10432;SDS011;5263;48.680;9.004;2024-03-22T14:42:08;0.30;;;0.30;;
10432;SDS011;5263;48.680;9.004;2024-03-22T14:44:34;1.03;;;0.40;;
10432;SDS011;5263;48.680;9.004;2024-03-22T14:46:59;1.60;;;0.27;;
10432;SDS011;5263;48.680;9.004;2024-03-22T14:49:25;0.43;;;0.27;;